sensor_id;sensor_type;location;lat;lon;timestamp;pressure;altitude;pressure_sealevel;temperature;humidity
11621;BME280;5866;49.094;11.900;2022-08-21T00:00:56;96242.66;;;20.26;100.00
11621;BME280;5866;49.094;11.900;2022-08-21T00:03:23;96254.03;;;19.03;100.00
11621;BME280;5866;49.094;11.900;2022-08-21T00:05:52;96240.66;;;18.77;100.00
11621;BME280;5866;49.094;11.900;2022-08-21T00:08:21;96249.44;;;18.46;100.00
11621;BME280;5866;49.094;11.900;2022-08-21T00:10:49;96250.59;;;18.83;100.00
11621;BME280;5866;49.094;11.900;2022-08-21T00:13:18;96250.06;;;18.35;100.00
11621;BME280;5866;49.094;11.900;2022-08-21T00:15:47;96248.03;;;18.11;100.00
11621;BME280;5866;49.094;11.900;2022-08-21T00:18:17;96242.81;;;18.42;100.00
11621;BME280;5866;49.094;11.900;2022-08-21T00:20:46;96244.88;;;18.60;100.00
11621;BME280;5866;49.094;11.900;2022-08-21T00:23:14;96247.78;;;18.52;100.00
11621;BME280;5866;49.094;11.900;2022-08-21T00:25:43;96234.38;;;19.47;100.00
11621;BME280;5866;49.094;11.900;2022-08-21T00:28:12;96235.50;;;19.89;100.00
11621;BME280;5866;49.094;11.900;2022-08-21T00:30:40;96234.50;;;20.08;100.00
11621;BME280;5866;49.094;11.900;2022-08-21T00:33:09;96232.31;;;19.73;100.00
11621;BME280;5866;49.094;11.900;2022-08-21T00:35:39;96233.59;;;19.71;100.00
11621;BME280;5866;49.094;11.900;2022-08-21T00:38:09;96222.22;;;19.94;100.00
11621;BME280;5866;49.094;11.900;2022-08-21T00:40:40;96233.91;;;20.06;100.00
11621;BME280;5866;49.094;11.900;2022-08-21T00:43:11;96230.06;;;19.95;100.00
11621;BME280;5866;49.094;11.900;2022-08-21T00:45:41;96238.81;;;19.91;100.00
11621;BME280;5866;49.094;11.900;2022-08-21T00:48:08;96237.81;;;20.10;100.00
11621;BME280;5866;49.094;11.900;2022-08-21T00:50:40;96232.78;;;20.20;100.00
11621;BME280;5866;49.094;11.900;2022-08-21T00:53:10;96229.28;;;19.63;100.00
11621;BME280;5866;49.094;11.900;2022-08-21T00:55:39;96232.81;;;19.64;100.00
11621;BME280;5866;49.094;11.900;2022-08-21T00:58:11;96225.63;;;19.83;100.00
11621;BME280;5866;49.094;11.900;2022-08-21T01:00:40;96227.66;;;19.87;100.00
11621;BME280;5866;49.094;11.900;2022-08-21T01:03:11;96224.84;;;19.75;100.00
11621;BME280;5866;49.094;11.900;2022-08-21T01:05:40;96226.50;;;19.76;100.00
11621;BME280;5866;49.094;11.900;2022-08-21T01:08:08;96221.06;;;19.83;100.00
11621;BME280;5866;49.094;11.900;2022-08-21T01:10:36;96215.41;;;19.66;100.00
11621;BME280;5866;49.094;11.900;2022-08-21T01:13:06;96212.63;;;19.48;100.00
11621;BME280;5866;49.094;11.900;2022-08-21T01:15:40;96211.28;;;19.26;100.00
11621;BME280;5866;49.094;11.900;2022-08-21T01:18:10;96216.09;;;19.55;100.00
11621;BME280;5866;49.094;11.900;2022-08-21T01:20:42;96210.09;;;19.53;100.00
11621;BME280;5866;49.094;11.900;2022-08-21T01:23:13;96217.53;;;19.58;100.00
11621;BME280;5866;49.094;11.900;2022-08-21T01:25:40;96217.13;;;19.54;100.00
11621;BME280;5866;49.094;11.900;2022-08-21T01:28:11;96212.50;;;19.37;100.00
11621;BME280;5866;49.094;11.900;2022-08-21T01:30:42;96209.25;;;19.22;100.00
11621;BME280;5866;49.094;11.900;2022-08-21T01:33:10;96215.03;;;19.19;100.00
11621;BME280;5866;49.094;11.900;2022-08-21T01:35:38;96218.09;;;19.29;100.00
11621;BME280;5866;49.094;11.900;2022-08-21T01:38:05;96217.28;;;19.28;100.00
11621;BME280;5866;49.094;11.900;2022-08-21T01:40:34;96208.41;;;19.21;100.00
11621;BME280;5866;49.094;11.900;2022-08-21T01:43:02;96222.31;;;19.18;100.00
11621;BME280;5866;49.094;11.900;2022-08-21T01:45:30;96221.88;;;19.15;100.00
11621;BME280;5866;49.094;11.900;2022-08-21T01:47:57;96222.31;;;19.18;100.00
11621;BME280;5866;49.094;11.900;2022-08-21T01:50:25;96222.47;;;19.23;100.00
11621;BME280;5866;49.094;11.900;2022-08-21T01:52:52;96217.69;;;19.25;100.00
11621;BME280;5866;49.094;11.900;2022-08-21T01:55:21;96212.34;;;19.19;100.00
11621;BME280;5866;49.094;11.900;2022-08-21T01:57:50;96214.06;;;19.07;100.00
11621;BME280;5866;49.094;11.900;2022-08-21T02:00:20;96211.28;;;18.88;100.00
11621;BME280;5866;49.094;11.900;2022-08-21T02:02:49;96217.69;;;18.87;100.00
11621;BME280;5866;49.094;11.900;2022-08-21T02:05:17;96214.56;;;18.97;100.00
11621;BME280;5866;49.094;11.900;2022-08-21T02:07:48;96212.88;;;18.96;100.00
11621;BME280;5866;49.094;11.900;2022-08-21T02:10:19;96210.19;;;18.96;100.00
11621;BME280;5866;49.094;11.900;2022-08-21T02:12:47;96216.28;;;18.78;100.00
11621;BME280;5866;49.094;11.900;2022-08-21T02:15:17;96211.31;;;18.82;100.00
11621;BME280;5866;49.094;11.900;2022-08-21T02:17:48;96205.06;;;18.88;100.00
11621;BME280;5866;49.094;11.900;2022-08-21T02:20:19;96194.91;;;18.96;100.00
11621;BME280;5866;49.094;11.900;2022-08-21T02:22:47;96201.13;;;18.97;100.00
11621;BME280;5866;49.094;11.900;2022-08-21T02:25:16;96198.44;;;18.97;100.00
11621;BME280;5866;49.094;11.900;2022-08-21T02:27:46;96202.97;;;18.96;100.00
11621;BME280;5866;49.094;11.900;2022-08-21T02:30:15;96204.41;;;18.99;100.00
11621;BME280;5866;49.094;11.900;2022-08-21T02:32:44;96202.50;;;19.06;100.00
11621;BME280;5866;49.094;11.900;2022-08-21T02:35:12;96210.34;;;19.14;100.00
11621;BME280;5866;49.094;11.900;2022-08-21T02:37:45;96197.22;;;19.24;100.00
11621;BME280;5866;49.094;11.900;2022-08-21T02:40:13;96203.22;;;19.26;100.00
11621;BME280;5866;49.094;11.900;2022-08-21T02:42:41;96201.13;;;19.28;100.00
11621;BME280;5866;49.094;11.900;2022-08-21T02:45:10;96200.31;;;19.28;100.00
11621;BME280;5866;49.094;11.900;2022-08-21T02:47:38;96207.41;;;19.16;100.00
11621;BME280;5866;49.094;11.900;2022-08-21T02:50:07;96210.97;;;19.10;100.00
11621;BME280;5866;49.094;11.900;2022-08-21T02:52:35;96213.19;;;19.19;100.00
11621;BME280;5866;49.094;11.900;2022-08-21T02:55:03;96213.16;;;19.26;100.00
11621;BME280;5866;49.094;11.900;2022-08-21T02:57:31;96214.81;;;19.27;100.00
11621;BME280;5866;49.094;11.900;2022-08-21T02:59:59;96213.19;;;19.19;100.00
11621;BME280;5866;49.094;11.900;2022-08-21T03:02:26;96209.13;;;19.10;100.00
11621;BME280;5866;49.094;11.900;2022-08-21T03:04:54;96200.81;;;19.12;100.00
11621;BME280;5866;49.094;11.900;2022-08-21T03:07:23;96201.28;;;19.02;100.00
11621;BME280;5866;49.094;11.900;2022-08-21T03:09:50;96206.53;;;18.84;100.00
11621;BME280;5866;49.094;11.900;2022-08-21T03:12:21;96203.59;;;18.92;100.00
11621;BME280;5866;49.094;11.900;2022-08-21T03:14:48;96215.19;;;18.92;100.00
11621;BME280;5866;49.094;11.900;2022-08-21T03:17:16;96215.19;;;18.92;100.00
11621;BME280;5866;49.094;11.900;2022-08-21T03:19:54;96212.28;;;18.94;100.00
11621;BME280;5866;49.094;11.900;2022-08-21T03:22:24;96217.50;;;18.89;100.00
11621;BME280;5866;49.094;11.900;2022-08-21T03:24:52;96204.66;;;18.91;100.00
11621;BME280;5866;49.094;11.900;2022-08-21T03:27:20;96212.72;;;18.91;100.00
11621;BME280;5866;49.094;11.900;2022-08-21T03:29:48;96210.84;;;18.91;100.00
11621;BME280;5866;49.094;11.900;2022-08-21T03:32:16;96207.53;;;18.89;100.00
11621;BME280;5866;49.094;11.900;2022-08-21T03:34:43;96209.22;;;18.84;100.00
11621;BME280;5866;49.094;11.900;2022-08-21T03:37:13;96218.56;;;18.75;100.00
11621;BME280;5866;49.094;11.900;2022-08-21T03:39:42;96216.34;;;18.65;100.00
11621;BME280;5866;49.094;11.900;2022-08-21T03:42:11;96222.09;;;18.69;100.00
11621;BME280;5866;49.094;11.900;2022-08-21T03:44:38;96224.19;;;18.67;100.00
11621;BME280;5866;49.094;11.900;2022-08-21T03:47:06;96222.94;;;18.63;100.00
11621;BME280;5866;49.094;11.900;2022-08-21T03:49:34;96227.09;;;18.65;100.00
11621;BME280;5866;49.094;11.900;2022-08-21T03:52:02;96219.25;;;18.64;100.00
11621;BME280;5866;49.094;11.900;2022-08-21T03:54:30;96219.22;;;18.70;100.00
11621;BME280;5866;49.094;11.900;2022-08-21T03:57:01;96222.94;;;18.69;100.00
11621;BME280;5866;49.094;11.900;2022-08-21T03:59:29;96223.56;;;18.65;100.00
11621;BME280;5866;49.094;11.900;2022-08-21T04:01:59;96226.22;;;18.71;100.00
11621;BME280;5866;49.094;11.900;2022-08-21T04:04:27;96226.22;;;18.78;100.00
11621;BME280;5866;49.094;11.900;2022-08-21T04:06:56;96222.88;;;18.89;100.00
11621;BME280;5866;49.094;11.900;2022-08-21T04:09:24;96222.25;;;18.87;100.00
11621;BME280;5866;49.094;11.900;2022-08-21T04:11:53;96234.06;;;18.73;100.00
11621;BME280;5866;49.094;11.900;2022-08-21T04:14:22;96228.28;;;18.76;100.00
11621;BME280;5866;49.094;11.900;2022-08-21T04:16:49;96239.25;;;18.74;100.00
11621;BME280;5866;49.094;11.900;2022-08-21T04:19:17;96235.75;;;18.74;100.00
11621;BME280;5866;49.094;11.900;2022-08-21T04:21:44;96234.31;;;18.65;100.00
11621;BME280;5866;49.094;11.900;2022-08-21T04:24:14;96236.13;;;18.77;100.00
11621;BME280;5866;49.094;11.900;2022-08-21T04:26:42;96228.66;;;18.86;100.00
11621;BME280;5866;49.094;11.900;2022-08-21T04:29:09;96239.16;;;18.94;100.00
11621;BME280;5866;49.094;11.900;2022-08-21T04:31:38;96239.59;;;18.97;100.00
11621;BME280;5866;49.094;11.900;2022-08-21T04:34:06;96237.66;;;19.04;100.00
11621;BME280;5866;49.094;11.900;2022-08-21T04:36:34;96236.66;;;19.06;100.00
11621;BME280;5866;49.094;11.900;2022-08-21T04:39:02;96252.97;;;19.04;100.00
11621;BME280;5866;49.094;11.900;2022-08-21T04:41:30;96243.84;;;19.12;100.00
11621;BME280;5866;49.094;11.900;2022-08-21T04:43:57;96250.06;;;19.12;100.00
11621;BME280;5866;49.094;11.900;2022-08-21T04:46:25;96247.13;;;19.20;100.00
11621;BME280;5866;49.094;11.900;2022-08-21T04:48:54;96252.88;;;19.24;100.00
11621;BME280;5866;49.094;11.900;2022-08-21T04:51:24;96250.75;;;19.32;100.00
11621;BME280;5866;49.094;11.900;2022-08-21T04:53:58;96250.38;;;19.35;100.00
11621;BME280;5866;49.094;11.900;2022-08-21T04:56:30;96253.22;;;19.40;100.00
11621;BME280;5866;49.094;11.900;2022-08-21T04:59:01;96257.31;;;19.49;100.00
11621;BME280;5866;49.094;11.900;2022-08-21T05:01:33;96250.28;;;19.48;100.00
11621;BME280;5866;49.094;11.900;2022-08-21T05:04:04;96260.63;;;19.51;100.00
11621;BME280;5866;49.094;11.900;2022-08-21T05:06:35;96264.44;;;19.31;100.00
11621;BME280;5866;49.094;11.900;2022-08-21T05:09:05;96254.47;;;19.31;100.00
11621;BME280;5866;49.094;11.900;2022-08-21T05:11:35;96264.38;;;19.44;100.00
11621;BME280;5866;49.094;11.900;2022-08-21T05:14:04;96263.47;;;19.56;100.00
11621;BME280;5866;49.094;11.900;2022-08-21T05:16:31;96253.94;;;19.60;100.00
11621;BME280;5866;49.094;11.900;2022-08-21T05:19:05;96262.19;;;19.65;100.00
11621;BME280;5866;49.094;11.900;2022-08-21T05:21:33;96269.56;;;19.76;100.00
11621;BME280;5866;49.094;11.900;2022-08-21T05:24:00;96266.94;;;19.95;100.00
11621;BME280;5866;49.094;11.900;2022-08-21T05:26:28;96264.47;;;20.18;100.00
11621;BME280;5866;49.094;11.900;2022-08-21T05:28:56;96264.56;;;20.36;100.00
11621;BME280;5866;49.094;11.900;2022-08-21T05:31:23;96276.38;;;20.53;100.00
11621;BME280;5866;49.094;11.900;2022-08-21T05:33:51;96266.66;;;20.70;100.00
11621;BME280;5866;49.094;11.900;2022-08-21T05:36:22;96273.13;;;20.87;100.00
11621;BME280;5866;49.094;11.900;2022-08-21T05:38:50;96274.59;;;21.01;100.00
11621;BME280;5866;49.094;11.900;2022-08-21T05:41:17;96281.75;;;20.96;100.00
11621;BME280;5866;49.094;11.900;2022-08-21T05:43:45;96287.66;;;21.22;100.00
11621;BME280;5866;49.094;11.900;2022-08-21T05:46:13;96273.97;;;21.54;100.00
11621;BME280;5866;49.094;11.900;2022-08-21T05:48:40;96276.72;;;21.65;100.00
11621;BME280;5866;49.094;11.900;2022-08-21T05:51:09;96272.31;;;21.53;100.00
11621;BME280;5866;49.094;11.900;2022-08-21T05:53:40;96273.25;;;21.47;100.00
11621;BME280;5866;49.094;11.900;2022-08-21T05:56:10;96279.84;;;21.32;100.00
11621;BME280;5866;49.094;11.900;2022-08-21T05:58:38;96279.22;;;21.19;100.00
11621;BME280;5866;49.094;11.900;2022-08-21T06:01:06;96281.84;;;21.25;100.00
11621;BME280;5866;49.094;11.900;2022-08-21T06:03:37;96278.56;;;21.53;100.00
11621;BME280;5866;49.094;11.900;2022-08-21T06:06:05;96279.91;;;21.74;100.00
11621;BME280;5866;49.094;11.900;2022-08-21T06:08:33;96273.88;;;21.90;100.00
11621;BME280;5866;49.094;11.900;2022-08-21T06:11:04;96280.63;;;22.10;100.00
11621;BME280;5866;49.094;11.900;2022-08-21T06:13:33;96278.03;;;22.27;100.00
11621;BME280;5866;49.094;11.900;2022-08-21T06:16:03;96277.94;;;22.22;100.00
11621;BME280;5866;49.094;11.900;2022-08-21T06:18:32;96273.81;;;22.20;100.00
11621;BME280;5866;49.094;11.900;2022-08-21T06:20:59;96285.50;;;21.61;100.00
11621;BME280;5866;49.094;11.900;2022-08-21T06:23:27;96278.75;;;22.11;100.00
11621;BME280;5866;49.094;11.900;2022-08-21T06:25:59;96281.69;;;22.21;100.00
11621;BME280;5866;49.094;11.900;2022-08-21T06:28:28;96284.09;;;22.75;100.00
11621;BME280;5866;49.094;11.900;2022-08-21T06:30:56;96288.91;;;22.73;100.00
11621;BME280;5866;49.094;11.900;2022-08-21T06:33:24;96280.19;;;22.95;100.00
11621;BME280;5866;49.094;11.900;2022-08-21T06:35:57;96283.19;;;23.21;100.00
11621;BME280;5866;49.094;11.900;2022-08-21T06:38:26;96287.28;;;23.75;100.00
11621;BME280;5866;49.094;11.900;2022-08-21T06:40:54;96287.59;;;23.50;100.00
11621;BME280;5866;49.094;11.900;2022-08-21T06:43:23;96288.53;;;24.01;100.00
11621;BME280;5866;49.094;11.900;2022-08-21T06:46:07;96285.28;;;24.15;100.00
11621;BME280;5866;49.094;11.900;2022-08-21T06:48:34;96286.94;;;24.50;100.00
11621;BME280;5866;49.094;11.900;2022-08-21T06:51:02;96285.50;;;24.42;100.00
11621;BME280;5866;49.094;11.900;2022-08-21T06:53:30;96279.13;;;24.53;100.00
11621;BME280;5866;49.094;11.900;2022-08-21T06:55:57;96278.06;;;24.71;100.00
11621;BME280;5866;49.094;11.900;2022-08-21T06:58:25;96277.66;;;24.12;100.00
11621;BME280;5866;49.094;11.900;2022-08-21T07:00:53;96274.50;;;23.59;100.00
11621;BME280;5866;49.094;11.900;2022-08-21T07:03:29;96281.03;;;21.84;100.00
11621;BME280;5866;49.094;11.900;2022-08-21T07:05:57;96276.06;;;21.52;100.00
11621;BME280;5866;49.094;11.900;2022-08-21T07:08:25;96275.06;;;20.62;100.00
11621;BME280;5866;49.094;11.900;2022-08-21T07:10:55;96279.59;;;20.19;100.00
11621;BME280;5866;49.094;11.900;2022-08-21T07:13:23;96283.00;;;20.08;100.00
11621;BME280;5866;49.094;11.900;2022-08-21T07:15:50;96279.44;;;21.17;100.00
11621;BME280;5866;49.094;11.900;2022-08-21T07:18:18;96279.13;;;22.96;100.00
11621;BME280;5866;49.094;11.900;2022-08-21T07:20:47;96274.81;;;25.07;100.00
11621;BME280;5866;49.094;11.900;2022-08-21T07:23:21;96275.00;;;26.19;87.97
11621;BME280;5866;49.094;11.900;2022-08-21T07:25:50;96276.13;;;26.54;79.51
11621;BME280;5866;49.094;11.900;2022-08-21T07:28:17;96267.09;;;27.32;77.12
11621;BME280;5866;49.094;11.900;2022-08-21T07:30:45;96278.13;;;27.68;68.05
11621;BME280;5866;49.094;11.900;2022-08-21T07:33:13;96268.19;;;28.13;62.97
11621;BME280;5866;49.094;11.900;2022-08-21T07:35:41;96273.91;;;28.82;60.76
11621;BME280;5866;49.094;11.900;2022-08-21T07:38:09;96271.41;;;29.11;59.21
11621;BME280;5866;49.094;11.900;2022-08-21T07:40:37;96268.72;;;28.96;57.69
11621;BME280;5866;49.094;11.900;2022-08-21T07:43:05;96272.63;;;27.47;67.10
11621;BME280;5866;49.094;11.900;2022-08-21T07:45:32;96278.03;;;22.27;100.00
11621;BME280;5866;49.094;11.900;2022-08-21T07:48:00;96276.59;;;20.94;100.00
11621;BME280;5866;49.094;11.900;2022-08-21T07:50:28;96281.19;;;22.01;100.00
11621;BME280;5866;49.094;11.900;2022-08-21T07:52:55;96277.75;;;22.58;100.00
11621;BME280;5866;49.094;11.900;2022-08-21T07:55:24;96280.63;;;23.03;100.00
11621;BME280;5866;49.094;11.900;2022-08-21T07:57:52;96274.03;;;24.90;100.00
11621;BME280;5866;49.094;11.900;2022-08-21T08:00:26;96276.00;;;24.28;100.00
11621;BME280;5866;49.094;11.900;2022-08-21T08:02:55;96276.47;;;23.24;100.00
11621;BME280;5866;49.094;11.900;2022-08-21T08:05:25;96288.56;;;22.58;100.00
11621;BME280;5866;49.094;11.900;2022-08-21T08:07:53;96283.53;;;20.84;100.00
11621;BME280;5866;49.094;11.900;2022-08-21T08:10:21;96281.47;;;21.52;100.00
11621;BME280;5866;49.094;11.900;2022-08-21T08:12:51;96285.91;;;22.05;100.00
11621;BME280;5866;49.094;11.900;2022-08-21T08:15:25;96286.44;;;22.60;100.00
11621;BME280;5866;49.094;11.900;2022-08-21T08:17:53;96281.59;;;22.97;100.00
11621;BME280;5866;49.094;11.900;2022-08-21T08:20:21;96290.81;;;23.36;100.00
11621;BME280;5866;49.094;11.900;2022-08-21T08:22:51;96285.19;;;22.10;100.00
11621;BME280;5866;49.094;11.900;2022-08-21T08:25:21;96295.03;;;22.69;100.00
11621;BME280;5866;49.094;11.900;2022-08-21T08:27:50;96288.53;;;22.81;100.00
11621;BME280;5866;49.094;11.900;2022-08-21T08:30:20;96281.75;;;23.30;100.00
11621;BME280;5866;49.094;11.900;2022-08-21T08:32:48;96280.53;;;24.22;100.00
11621;BME280;5866;49.094;11.900;2022-08-21T08:35:17;96279.63;;;25.21;95.81
11621;BME280;5866;49.094;11.900;2022-08-21T08:37:50;96277.50;;;26.20;85.19
11621;BME280;5866;49.094;11.900;2022-08-21T08:40:20;96288.03;;;26.80;77.90
11621;BME280;5866;49.094;11.900;2022-08-21T08:42:51;96278.03;;;25.47;88.39
11621;BME280;5866;49.094;11.900;2022-08-21T08:45:20;96284.31;;;24.71;94.60
11621;BME280;5866;49.094;11.900;2022-08-21T08:47:52;96286.94;;;24.50;97.83
11621;BME280;5866;49.094;11.900;2022-08-21T08:50:28;96282.22;;;24.40;97.92
11621;BME280;5866;49.094;11.900;2022-08-21T08:53:02;96289.16;;;24.86;96.61
11621;BME280;5866;49.094;11.900;2022-08-21T08:55:34;96281.63;;;26.59;86.66
11621;BME280;5866;49.094;11.900;2022-08-21T08:58:04;96282.13;;;28.47;70.71
11621;BME280;5866;49.094;11.900;2022-08-21T09:00:32;96277.66;;;27.91;70.02
11621;BME280;5866;49.094;11.900;2022-08-21T09:03:02;96282.84;;;27.92;67.71
11621;BME280;5866;49.094;11.900;2022-08-21T09:05:37;96281.91;;;27.57;67.75
11621;BME280;5866;49.094;11.900;2022-08-21T09:08:23;96273.53;;;29.39;59.94
11621;BME280;5866;49.094;11.900;2022-08-21T09:11:01;96276.44;;;30.89;54.64
11621;BME280;5866;49.094;11.900;2022-08-21T09:13:40;96270.59;;;32.65;48.51
11621;BME280;5866;49.094;11.900;2022-08-21T09:16:15;96261.06;;;33.90;44.01
11621;BME280;5866;49.094;11.900;2022-08-21T09:18:55;96264.41;;;32.03;46.94
11621;BME280;5866;49.094;11.900;2022-08-21T09:21:35;96273.69;;;30.17;53.00
11621;BME280;5866;49.094;11.900;2022-08-21T09:24:19;96275.09;;;30.82;54.96
11621;BME280;5866;49.094;11.900;2022-08-21T09:26:56;96271.66;;;29.30;56.55
11621;BME280;5866;49.094;11.900;2022-08-21T09:29:27;96267.91;;;28.95;58.41
11621;BME280;5866;49.094;11.900;2022-08-21T09:31:57;96269.06;;;29.63;56.35
11621;BME280;5866;49.094;11.900;2022-08-21T09:34:26;96273.66;;;28.18;62.62
11621;BME280;5866;49.094;11.900;2022-08-21T09:36:55;96269.03;;;28.19;65.17
11621;BME280;5866;49.094;11.900;2022-08-21T09:39:25;96280.16;;;26.79;72.28
11621;BME280;5866;49.094;11.900;2022-08-21T09:41:57;96275.03;;;26.87;72.75
11621;BME280;5866;49.094;11.900;2022-08-21T09:44:29;96279.25;;;27.15;71.29
11621;BME280;5866;49.094;11.900;2022-08-21T09:46:58;96274.91;;;25.55;80.39
11621;BME280;5866;49.094;11.900;2022-08-21T09:49:30;96277.22;;;24.70;99.58
11621;BME280;5866;49.094;11.900;2022-08-21T09:51:59;96281.78;;;24.48;100.00
11621;BME280;5866;49.094;11.900;2022-08-21T09:54:30;96288.03;;;24.49;97.68
11621;BME280;5866;49.094;11.900;2022-08-21T09:57:00;96283.28;;;23.38;100.00
11621;BME280;5866;49.094;11.900;2022-08-21T09:59:51;96282.44;;;22.51;100.00
11621;BME280;5866;49.094;11.900;2022-08-21T10:02:26;96282.63;;;23.59;100.00
11621;BME280;5866;49.094;11.900;2022-08-21T10:04:57;96277.75;;;24.84;100.00
11621;BME280;5866;49.094;11.900;2022-08-21T10:07:27;96283.59;;;25.36;88.93
11621;BME280;5866;49.094;11.900;2022-08-21T10:10:00;96280.63;;;24.11;97.83
11621;BME280;5866;49.094;11.900;2022-08-21T10:12:33;96281.69;;;24.10;100.00
11621;BME280;5866;49.094;11.900;2022-08-21T10:15:15;96280.41;;;25.22;91.67
11621;BME280;5866;49.094;11.900;2022-08-21T10:17:54;96272.84;;;25.94;82.24
11621;BME280;5866;49.094;11.900;2022-08-21T10:20:28;96271.94;;;26.10;77.62
11621;BME280;5866;49.094;11.900;2022-08-21T10:23:05;96275.59;;;25.72;83.60
11621;BME280;5866;49.094;11.900;2022-08-21T10:25:39;96279.22;;;25.35;83.63
11621;BME280;5866;49.094;11.900;2022-08-21T10:28:32;96280.06;;;24.75;87.30
11621;BME280;5866;49.094;11.900;2022-08-21T10:31:21;96285.22;;;22.56;100.00
11621;BME280;5866;49.094;11.900;2022-08-21T10:34:06;96278.59;;;21.76;100.00
11621;BME280;5866;49.094;11.900;2022-08-21T10:36:46;96268.94;;;21.27;100.00
11621;BME280;5866;49.094;11.900;2022-08-21T10:39:20;96268.63;;;22.06;100.00
11621;BME280;5866;49.094;11.900;2022-08-21T10:42:28;96274.41;;;22.33;100.00
11621;BME280;5866;49.094;11.900;2022-08-21T10:45:13;96263.81;;;22.89;100.00
11621;BME280;5866;49.094;11.900;2022-08-21T10:47:47;96262.69;;;23.25;100.00
11621;BME280;5866;49.094;11.900;2022-08-21T10:50:25;96254.72;;;24.86;95.51
11621;BME280;5866;49.094;11.900;2022-08-21T10:53:07;96260.56;;;26.50;77.37
11621;BME280;5866;49.094;11.900;2022-08-21T10:55:41;96263.81;;;26.47;76.65
11621;BME280;5866;49.094;11.900;2022-08-21T10:58:14;96271.88;;;25.35;82.44
11621;BME280;5866;49.094;11.900;2022-08-21T11:00:48;96271.44;;;23.55;100.00
11621;BME280;5866;49.094;11.900;2022-08-21T11:03:23;96268.41;;;23.01;100.00
11621;BME280;5866;49.094;11.900;2022-08-21T11:05:53;96268.94;;;22.74;100.00
11621;BME280;5866;49.094;11.900;2022-08-21T11:08:23;96261.63;;;24.61;98.02
11621;BME280;5866;49.094;11.900;2022-08-21T11:10:58;96262.81;;;25.68;84.04
11621;BME280;5866;49.094;11.900;2022-08-21T11:13:34;96262.75;;;25.19;83.24
11621;BME280;5866;49.094;11.900;2022-08-21T11:16:09;96260.94;;;25.73;82.52
11621;BME280;5866;49.094;11.900;2022-08-21T11:18:41;96253.16;;;26.72;77.66
11621;BME280;5866;49.094;11.900;2022-08-21T11:21:25;96250.78;;;26.49;73.86
11621;BME280;5866;49.094;11.900;2022-08-21T11:23:59;96246.06;;;26.34;76.09
11621;BME280;5866;49.094;11.900;2022-08-21T11:26:49;96252.81;;;25.73;73.62
11621;BME280;5866;49.094;11.900;2022-08-21T11:29:21;96259.44;;;26.46;73.70
11621;BME280;5866;49.094;11.900;2022-08-21T11:32:04;96248.75;;;26.71;75.68
11621;BME280;5866;49.094;11.900;2022-08-21T11:34:49;96250.06;;;26.63;70.09
11621;BME280;5866;49.094;11.900;2022-08-21T11:37:44;96243.31;;;26.02;78.71
11621;BME280;5866;49.094;11.900;2022-08-21T11:40:22;96237.97;;;26.44;74.79
11621;BME280;5866;49.094;11.900;2022-08-21T11:42:58;96240.25;;;25.24;80.57
11621;BME280;5866;49.094;11.900;2022-08-21T11:45:36;96237.16;;;26.81;71.55
11621;BME280;5866;49.094;11.900;2022-08-21T11:48:15;96232.47;;;28.40;60.28
11621;BME280;5866;49.094;11.900;2022-08-21T11:50:46;96233.25;;;28.81;59.17
11621;BME280;5866;49.094;11.900;2022-08-21T11:53:18;96221.53;;;28.45;59.07
11621;BME280;5866;49.094;11.900;2022-08-21T11:55:50;96226.50;;;26.74;68.65
11621;BME280;5866;49.094;11.900;2022-08-21T11:58:24;96225.59;;;27.15;64.40
11621;BME280;5866;49.094;11.900;2022-08-21T12:00:55;96217.91;;;26.97;65.89
11621;BME280;5866;49.094;11.900;2022-08-21T12:03:27;96211.63;;;25.86;66.02
11621;BME280;5866;49.094;11.900;2022-08-21T12:06:00;96212.59;;;27.32;61.61
11621;BME280;5866;49.094;11.900;2022-08-21T12:08:33;96213.03;;;27.71;64.09
11621;BME280;5866;49.094;11.900;2022-08-21T12:11:05;96215.00;;;28.56;60.81
11621;BME280;5866;49.094;11.900;2022-08-21T12:13:38;96206.69;;;29.01;53.92
11621;BME280;5866;49.094;11.900;2022-08-21T12:16:10;96206.22;;;27.94;55.60
11621;BME280;5866;49.094;11.900;2022-08-21T12:18:38;96204.09;;;27.14;61.00
11621;BME280;5866;49.094;11.900;2022-08-21T12:21:21;96199.47;;;28.06;58.44
11621;BME280;5866;49.094;11.900;2022-08-21T12:23:59;96195.31;;;28.74;53.67
11621;BME280;5866;49.094;11.900;2022-08-21T12:26:30;96201.78;;;27.47;58.01
11621;BME280;5866;49.094;11.900;2022-08-21T12:29:07;96195.84;;;27.71;55.99
11621;BME280;5866;49.094;11.900;2022-08-21T12:31:49;96194.81;;;26.63;60.47
11621;BME280;5866;49.094;11.900;2022-08-21T12:34:18;96206.94;;;24.69;79.23
11621;BME280;5866;49.094;11.900;2022-08-21T12:36:54;96201.31;;;25.13;75.07
11621;BME280;5866;49.094;11.900;2022-08-21T12:39:26;96206.44;;;26.12;67.10
11621;BME280;5866;49.094;11.900;2022-08-21T12:41:58;96190.16;;;26.17;69.47
11621;BME280;5866;49.094;11.900;2022-08-21T12:44:32;96183.13;;;27.19;62.70
11621;BME280;5866;49.094;11.900;2022-08-21T12:47:04;96189.63;;;29.40;54.09
11621;BME280;5866;49.094;11.900;2022-08-21T12:49:36;96181.50;;;30.75;45.97
11621;BME280;5866;49.094;11.900;2022-08-21T12:52:11;96176.91;;;30.41;46.60
11621;BME280;5866;49.094;11.900;2022-08-21T12:54:43;96177.63;;;29.36;48.43
11621;BME280;5866;49.094;11.900;2022-08-21T12:57:20;96160.72;;;29.72;47.86
11621;BME280;5866;49.094;11.900;2022-08-21T12:59:57;96164.75;;;27.72;52.11
11621;BME280;5866;49.094;11.900;2022-08-21T13:02:27;96159.34;;;28.12;52.04
11621;BME280;5866;49.094;11.900;2022-08-21T13:04:56;96163.19;;;29.25;49.07
11621;BME280;5866;49.094;11.900;2022-08-21T13:07:28;96161.22;;;30.18;44.97
11621;BME280;5866;49.094;11.900;2022-08-21T13:09:59;96146.97;;;30.50;43.29
11621;BME280;5866;49.094;11.900;2022-08-21T13:12:28;96149.97;;;30.53;44.39